createdAt,value
2017-07-26T00:01:13.370Z,92.79
2017-07-26T00:03:42.443Z,92.83
2017-07-26T00:06:12.257Z,92.57
2017-07-26T00:08:42.100Z,92.42
2017-07-26T00:11:11.177Z,92.49
2017-07-26T00:13:40.236Z,92.37
2017-07-26T00:16:09.346Z,92.67
2017-07-26T00:18:38.368Z,93.09
2017-07-26T00:21:07.451Z,93.58
2017-07-26T00:23:37.268Z,93.31
2017-07-26T00:26:07.119Z,93.10
2017-07-26T00:28:36.171Z,93.09
2017-07-26T00:31:06.079Z,92.84
2017-07-26T00:33:35.931Z,92.74
2017-07-26T00:36:04.989Z,92.80
2017-07-26T00:38:34.818Z,92.79
2017-07-26T00:41:04.006Z,93.02
2017-07-26T00:43:33.835Z,93.09
2017-07-26T00:46:03.024Z,92.90
2017-07-26T00:48:32.840Z,92.99
2017-07-26T00:51:01.903Z,92.90
2017-07-26T00:53:30.972Z,92.61
2017-07-26T00:56:00.040Z,92.96
2017-07-26T00:58:29.118Z,93.53
2017-07-26T01:00:58.933Z,93.40
2017-07-26T01:03:28.231Z,93.54
2017-07-26T01:05:58.063Z,93.55
2017-07-26T01:08:27.115Z,93.45
2017-07-26T01:10:56.199Z,93.61
2017-07-26T01:13:25.376Z,93.76
2017-07-26T01:15:54.449Z,94.21
2017-07-26T01:18:23.507Z,94.26
2017-07-26T01:20:53.351Z,94.16
2017-07-26T01:23:22.396Z,94.19
2017-07-26T01:25:51.468Z,93.86
2017-07-26T01:28:20.508Z,94.36
2017-07-26T01:30:50.336Z,93.92
2017-07-26T01:33:19.410Z,93.88
2017-07-26T01:35:49.235Z,94.29
2017-07-26T01:38:19.077Z,94.74
2017-07-26T01:40:48.115Z,94.77
2017-07-26T01:43:17.196Z,94.60
2017-07-26T01:45:46.236Z,94.25
2017-07-26T01:48:15.295Z,94.17
2017-07-26T01:50:44.363Z,93.89
2017-07-26T01:53:13.433Z,94.05
2017-07-26T01:55:42.503Z,93.97
2017-07-26T01:58:12.344Z,93.44
2017-07-26T02:00:41.396Z,93.12
2017-07-26T02:03:10.470Z,93.83
2017-07-26T02:05:39.545Z,94.17
2017-07-26T02:08:08.632Z,94.16
2017-07-26T02:10:37.703Z,93.88
2017-07-26T02:13:06.766Z,93.62
2017-07-26T02:15:35.840Z,93.75
2017-07-26T02:18:04.893Z,93.59
2017-07-26T02:20:34.699Z,93.65
2017-07-26T02:23:03.768Z,93.69
2017-07-26T02:25:33.600Z,93.74
2017-07-26T02:28:03.454Z,93.72
2017-07-26T02:30:32.503Z,93.66
2017-07-26T02:33:02.355Z,94.13
2017-07-26T02:35:31.436Z,94.45
2017-07-26T02:38:00.471Z,94.53
2017-07-26T02:40:29.551Z,94.53
2017-07-26T02:42:59.626Z,94.17
2017-07-26T02:45:29.465Z,94.06
2017-07-26T02:47:58.546Z,93.95
2017-07-26T02:50:27.636Z,93.65
2017-07-26T02:52:57.463Z,93.96
2017-07-26T02:55:26.551Z,93.41
2017-07-26T02:57:55.619Z,93.84
2017-07-26T03:00:24.682Z,93.82
2017-07-26T03:02:53.728Z,93.59
2017-07-26T03:05:23.556Z,93.63
2017-07-26T03:07:52.644Z,93.57
2017-07-26T03:10:21.714Z,93.56
2017-07-26T03:12:50.808Z,93.62
2017-07-26T03:15:20.328Z,93.85
2017-07-26T03:17:49.361Z,94.03
2017-07-26T03:20:18.432Z,94.00
2017-07-26T03:22:47.480Z,94.05
2017-07-26T03:25:16.556Z,94.31
2017-07-26T03:27:45.601Z,94.82
2017-07-26T03:30:15.445Z,94.40
2017-07-26T03:32:44.516Z,94.48
2017-07-26T03:35:14.337Z,94.49
2017-07-26T03:37:44.159Z,94.42
2017-07-26T03:40:13.249Z,94.44
2017-07-26T03:42:42.303Z,94.54
2017-07-26T03:45:11.400Z,94.72
2017-07-26T03:47:40.451Z,94.61
2017-07-26T03:50:09.536Z,94.47
2017-07-26T03:52:38.647Z,94.71
2017-07-26T03:55:07.694Z,94.79
2017-07-26T03:57:37.543Z,94.23
2017-07-26T04:00:06.625Z,94.05
2017-07-26T04:02:36.464Z,93.48
2017-07-26T04:05:05.548Z,94.04
2017-07-26T04:07:34.598Z,94.21
2017-07-26T04:10:03.683Z,94.31
2017-07-26T04:12:32.759Z,94.10
2017-07-26T04:15:01.842Z,94.22
2017-07-26T04:17:30.914Z,94.45
2017-07-26T04:19:59.959Z,94.12
2017-07-26T04:22:29.055Z,93.84
2017-07-26T04:24:58.109Z,94.04
2017-07-26T04:27:27.175Z,94.35
2017-07-26T04:29:57.007Z,94.31
2017-07-26T04:32:26.056Z,94.15
2017-07-26T04:34:55.188Z,94.04
2017-07-26T04:37:25.315Z,94.58
2017-07-26T04:39:54.385Z,94.51
2017-07-26T04:42:24.211Z,94.48
2017-07-26T04:44:53.289Z,94.73
2017-07-26T04:47:22.354Z,94.69
2017-07-26T04:49:51.471Z,94.57
2017-07-26T04:52:20.525Z,94.18
2017-07-26T04:54:49.582Z,94.14
2017-07-26T04:57:19.428Z,94.28
2017-07-26T04:59:48.490Z,94.20
2017-07-26T05:02:18.299Z,94.17
2017-07-26T05:04:48.143Z,94.35
2017-07-26T05:07:17.203Z,94.17
2017-07-26T05:09:47.035Z,94.34
2017-07-26T05:12:16.143Z,94.22
2017-07-26T05:14:45.344Z,94.26
2017-07-26T05:17:14.410Z,94.35
2017-07-26T05:19:43.500Z,94.25
2017-07-26T05:22:12.561Z,94.36
2017-07-26T05:24:41.614Z,93.96
2017-07-26T05:27:10.677Z,94.23
2017-07-26T05:29:39.732Z,93.80
2017-07-26T05:32:09.445Z,93.94
2017-07-26T05:34:38.516Z,94.46
2017-07-26T05:37:07.595Z,93.85
2017-07-26T05:39:37.438Z,93.90
2017-07-26T05:42:06.496Z,93.57
2017-07-26T05:44:36.357Z,93.76
2017-07-26T05:47:05.456Z,93.76
2017-07-26T05:49:34.540Z,93.75
2017-07-26T05:52:04.779Z,93.86
2017-07-26T05:54:33.835Z,93.73
2017-07-26T05:57:02.932Z,93.97
2017-07-26T05:59:31.978Z,94.09
2017-07-26T06:02:01.040Z,93.98
2017-07-26T06:04:30.109Z,94.32
2017-07-26T06:06:59.920Z,94.27
2017-07-26T06:09:28.972Z,93.23
2017-07-26T06:11:58.029Z,93.90
2017-07-26T06:14:27.112Z,92.40
2017-07-26T06:16:56.172Z,92.58
2017-07-26T06:19:25.215Z,92.97
2017-07-26T06:21:54.286Z,93.21
2017-07-26T06:24:24.123Z,93.21
2017-07-26T06:26:53.182Z,92.44
2017-07-26T06:29:22.262Z,91.36
2017-07-26T06:31:51.290Z,92.04
2017-07-26T06:34:20.368Z,91.69
2017-07-26T06:36:50.302Z,91.47
2017-07-26T06:39:20.111Z,91.09
2017-07-26T06:41:49.172Z,92.30
2017-07-26T06:44:18.285Z,92.02
2017-07-26T06:46:48.115Z,91.05
2017-07-26T06:49:17.185Z,91.60
2017-07-26T06:51:46.260Z,90.67
2017-07-26T06:54:15.315Z,90.79
2017-07-26T06:56:44.375Z,90.73
2017-07-26T06:59:13.430Z,90.32
2017-07-26T07:01:42.528Z,90.57
2017-07-26T07:04:11.610Z,90.70
2017-07-26T07:06:40.800Z,89.29
2017-07-26T07:09:09.903Z,89.01
2017-07-26T07:11:38.940Z,88.66
2017-07-26T07:14:08.029Z,89.26
2017-07-26T07:16:37.081Z,87.87
2017-07-26T07:19:06.189Z,88.17
2017-07-26T07:21:35.257Z,87.63
2017-07-26T07:24:04.327Z,88.17
2017-07-26T07:26:33.397Z,88.32
2017-07-26T07:29:02.475Z,86.91
2017-07-26T07:31:31.555Z,84.97
2017-07-26T07:34:00.591Z,84.10
2017-07-26T07:36:29.672Z,83.91
2017-07-26T07:38:58.742Z,84.66
2017-07-26T07:41:27.819Z,85.85
2017-07-26T07:43:56.874Z,86.62
2017-07-26T07:46:25.958Z,85.66
2017-07-26T07:48:55.055Z,85.99
2017-07-26T07:51:24.079Z,84.49
2017-07-26T07:53:53.167Z,86.67
2017-07-26T07:56:22.207Z,82.92
2017-07-26T07:58:51.291Z,84.09
2017-07-26T08:01:20.347Z,84.08
2017-07-26T08:03:49.396Z,81.30
2017-07-26T08:06:18.490Z,81.31
2017-07-26T08:08:47.540Z,81.87
2017-07-26T08:11:17.393Z,80.42
2017-07-26T08:13:46.444Z,80.83
2017-07-26T08:16:16.272Z,81.02
2017-07-26T08:18:45.324Z,79.60
2017-07-26T08:21:14.388Z,80.38
2017-07-26T08:23:43.445Z,78.95
2017-07-26T08:26:13.299Z,79.43
2017-07-26T08:28:42.384Z,77.52
2017-07-26T08:31:11.427Z,77.67
2017-07-26T08:33:40.503Z,77.82
2017-07-26T08:36:09.604Z,77.86
2017-07-26T08:38:38.643Z,76.85
2017-07-26T08:41:08.505Z,77.48
2017-07-26T08:43:37.555Z,76.22
2017-07-26T08:46:06.705Z,76.16
2017-07-26T08:48:35.743Z,76.67
2017-07-26T08:51:05.619Z,77.04
2017-07-26T08:53:34.675Z,76.78
2017-07-26T08:56:03.743Z,74.28
2017-07-26T08:58:33.571Z,77.41
2017-07-26T09:01:03.397Z,73.46
2017-07-26T09:03:32.485Z,71.25
2017-07-26T09:06:01.557Z,74.14
2017-07-26T09:08:31.396Z,72.42
2017-07-26T09:11:00.480Z,72.47
2017-07-26T09:13:29.563Z,71.36
2017-07-26T09:15:59.391Z,72.17
2017-07-26T09:18:28.435Z,71.10
2017-07-26T09:20:57.522Z,72.29
2017-07-26T09:23:26.614Z,73.04
2017-07-26T09:25:55.655Z,67.83
2017-07-26T09:28:25.455Z,68.63
2017-07-26T09:30:55.307Z,67.99
2017-07-26T09:33:24.366Z,67.84
2017-07-26T09:35:53.408Z,67.40
2017-07-26T09:38:22.495Z,70.04
2017-07-26T09:40:51.563Z,67.69
2017-07-26T09:43:21.391Z,70.71
2017-07-26T09:45:50.428Z,68.50
2017-07-26T09:48:19.521Z,69.08
2017-07-26T09:50:48.591Z,71.44
2017-07-26T09:53:17.655Z,72.08
2017-07-26T09:55:47.490Z,72.45
2017-07-26T09:58:16.563Z,68.93
2017-07-26T10:00:46.397Z,67.77
2017-07-26T10:03:15.474Z,66.53
2017-07-26T10:05:44.512Z,68.37
2017-07-26T10:08:13.575Z,65.76
2017-07-26T10:10:42.634Z,62.58
2017-07-26T10:13:11.704Z,62.78
2017-07-26T10:15:40.768Z,63.37
2017-07-26T10:18:09.835Z,62.96
2017-07-26T10:20:39.654Z,65.21
2017-07-26T10:23:09.512Z,63.59
2017-07-26T10:25:38.553Z,64.24
2017-07-26T10:28:07.647Z,64.09
2017-07-26T10:30:36.680Z,63.43
2017-07-26T10:33:05.722Z,65.66
2017-07-26T10:35:34.794Z,63.87
2017-07-26T10:38:03.856Z,60.74
2017-07-26T10:40:32.911Z,61.26
2017-07-26T10:43:01.979Z,61.13
2017-07-26T10:45:31.024Z,59.12
2017-07-26T10:48:00.101Z,58.60
2017-07-26T10:50:29.155Z,63.06
2017-07-26T10:52:58.220Z,61.35
2017-07-26T10:55:27.284Z,59.54
2017-07-26T10:57:56.344Z,62.43
2017-07-26T11:00:25.443Z,61.15
2017-07-26T11:02:54.515Z,57.80
2017-07-26T11:05:23.561Z,57.15
2017-07-26T11:07:52.681Z,59.27
2017-07-26T11:10:22.509Z,58.55
2017-07-26T11:12:51.554Z,60.45
2017-07-26T11:15:20.812Z,61.53
2017-07-26T11:17:49.878Z,60.11
2017-07-26T11:20:19.692Z,57.11
2017-07-26T11:22:48.763Z,58.16
2017-07-26T11:25:17.879Z,58.61
2017-07-26T11:27:46.920Z,58.06
2017-07-26T11:30:16.031Z,56.69
2017-07-26T11:32:45.038Z,54.91
2017-07-26T11:35:15.076Z,55.85
2017-07-26T11:37:44.220Z,55.73
2017-07-26T11:40:13.323Z,56.48
2017-07-26T11:42:42.415Z,58.35
2017-07-26T11:45:11.493Z,57.51
2017-07-26T11:47:40.550Z,57.20
2017-07-26T11:50:10.387Z,58.79
2017-07-26T11:52:40.215Z,56.38
2017-07-26T11:55:09.376Z,54.55
2017-07-26T11:57:38.405Z,55.84
2017-07-26T12:00:07.539Z,57.22
2017-07-26T12:02:36.571Z,57.92
2017-07-26T12:05:06.407Z,58.95
2017-07-26T12:07:35.452Z,59.36
2017-07-26T12:10:04.515Z,59.57
2017-07-26T12:12:33.554Z,57.57
2017-07-26T12:15:03.372Z,57.34
2017-07-26T12:17:32.437Z,55.44
2017-07-26T12:20:02.295Z,57.83
2017-07-26T12:22:32.135Z,56.66
2017-07-26T12:25:01.250Z,59.93
2017-07-26T12:27:30.276Z,55.34
2017-07-26T12:30:00.170Z,55.47
2017-07-26T12:32:29.227Z,56.95
2017-07-26T12:34:58.263Z,54.57
2017-07-26T12:37:27.320Z,53.39
2017-07-26T12:39:56.393Z,51.87
2017-07-26T12:42:25.555Z,53.62
2017-07-26T12:44:55.724Z,53.86
2017-07-26T12:47:24.768Z,54.86
2017-07-26T12:49:53.845Z,53.84
2017-07-26T12:52:22.879Z,54.29
2017-07-26T12:54:52.687Z,55.45
2017-07-26T12:57:22.537Z,54.63
2017-07-26T12:59:51.591Z,55.87
2017-07-26T13:02:20.960Z,54.87
2017-07-26T13:04:50.014Z,56.30
2017-07-26T13:07:19.929Z,56.45
2017-07-26T13:09:49.022Z,54.44
2017-07-26T13:12:18.823Z,54.10
2017-07-26T13:14:48.644Z,54.51
2017-07-26T13:17:19.091Z,53.06
2017-07-26T13:19:48.156Z,53.83
2017-07-26T13:22:17.980Z,52.38
2017-07-26T13:24:47.824Z,52.07
2017-07-26T13:27:16.919Z,50.50
2017-07-26T13:29:45.979Z,53.35
2017-07-26T13:32:15.795Z,50.64
2017-07-26T13:34:45.600Z,52.21
2017-07-26T13:37:15.569Z,50.83
2017-07-26T13:39:44.652Z,50.12
2017-07-26T13:42:13.688Z,48.18
2017-07-26T13:44:42.765Z,46.94
2017-07-26T13:47:11.819Z,47.59
2017-07-26T13:49:40.876Z,48.15
2017-07-26T13:52:10.052Z,47.56
2017-07-26T13:54:39.378Z,48.06
2017-07-26T13:57:08.444Z,49.06
2017-07-26T13:59:37.492Z,49.35
2017-07-26T14:02:06.576Z,48.59
2017-07-26T14:04:35.607Z,48.60
2017-07-26T14:07:04.672Z,48.39
2017-07-26T14:09:33.718Z,47.98
2017-07-26T14:12:02.794Z,48.04
2017-07-26T14:14:31.855Z,47.69
2017-07-26T14:17:01.661Z,47.31
2017-07-26T14:19:31.501Z,47.62
2017-07-26T14:22:00.575Z,45.94
2017-07-26T14:24:30.417Z,46.55
2017-07-26T14:26:59.466Z,47.48
2017-07-26T14:29:28.525Z,48.20
2017-07-26T14:31:57.877Z,48.54
2017-07-26T14:34:27.678Z,48.65
2017-07-26T14:36:57.510Z,49.18
2017-07-26T14:39:26.587Z,50.25
2017-07-26T14:41:56.415Z,48.26
2017-07-26T14:44:25.451Z,49.02
2017-07-26T14:46:54.492Z,50.07
2017-07-26T14:49:24.321Z,49.85
2017-07-26T14:51:53.365Z,50.35
2017-07-26T14:54:22.412Z,50.65
2017-07-26T14:56:51.471Z,50.88
2017-07-26T14:59:22.063Z,51.81
2017-07-26T15:01:52.764Z,53.29
2017-07-26T15:04:21.795Z,53.09
2017-07-26T15:06:50.845Z,53.97
2017-07-26T15:09:20.651Z,55.28
2017-07-26T15:11:50.494Z,52.64
2017-07-26T15:14:19.524Z,53.21
2017-07-26T15:16:48.603Z,54.31
2017-07-26T15:19:17.625Z,52.98
2017-07-26T15:21:46.668Z,53.92
2017-07-26T15:24:15.739Z,53.75
2017-07-26T15:26:45.562Z,55.30
2017-07-26T15:29:15.372Z,53.57
2017-07-26T15:31:45.206Z,53.72
2017-07-26T15:34:15.205Z,53.82
2017-07-26T15:36:45.028Z,54.55
2017-07-26T15:39:14.155Z,53.29
2017-07-26T15:41:43.199Z,52.28
2017-07-26T15:44:12.245Z,50.95
2017-07-26T15:46:41.341Z,52.45
2017-07-26T15:49:10.413Z,51.73
2017-07-26T15:51:39.461Z,52.49
2017-07-26T15:54:08.528Z,53.09
2017-07-26T15:56:37.579Z,52.72
2017-07-26T15:59:06.640Z,53.16
2017-07-26T16:01:35.695Z,51.73
2017-07-26T16:04:04.756Z,51.33
2017-07-26T16:06:34.592Z,52.12
2017-07-26T16:09:03.638Z,52.81
2017-07-26T16:11:32.706Z,51.50
2017-07-26T16:14:01.756Z,52.82
2017-07-26T16:16:31.591Z,53.60
2017-07-26T16:19:00.675Z,53.19
2017-07-26T16:21:29.744Z,53.12
2017-07-26T16:23:59.567Z,50.57
2017-07-26T16:26:29.396Z,50.41
2017-07-26T16:28:58.573Z,50.51
2017-07-26T16:31:28.379Z,51.04
2017-07-26T16:33:57.442Z,50.79
2017-07-26T16:36:26.505Z,49.65
2017-07-26T16:38:55.593Z,50.77
2017-07-26T16:41:24.662Z,50.44
2017-07-26T16:43:53.724Z,51.61
2017-07-26T16:46:22.763Z,48.85
2017-07-26T16:48:52.580Z,49.97
2017-07-26T16:51:21.658Z,49.62
2017-07-26T16:53:51.472Z,50.48
2017-07-26T16:56:20.522Z,51.86
2017-07-26T16:58:49.559Z,51.10
2017-07-26T17:01:18.620Z,50.70
2017-07-26T17:03:47.676Z,50.94
2017-07-26T17:06:16.923Z,50.83
2017-07-26T17:08:45.975Z,53.15
2017-07-26T17:11:15.056Z,53.24
2017-07-26T17:13:44.113Z,54.57
2017-07-26T17:16:13.176Z,54.39
2017-07-26T17:18:42.229Z,54.28
2017-07-26T17:21:12.065Z,53.94
2017-07-26T17:23:41.110Z,54.78
2017-07-26T17:26:11.024Z,54.78
2017-07-26T17:28:40.079Z,55.35
2017-07-26T17:31:09.156Z,55.98
2017-07-26T17:33:38.244Z,55.37
2017-07-26T17:36:08.091Z,55.39
2017-07-26T17:38:37.167Z,55.14
2017-07-26T17:41:06.226Z,55.98
2017-07-26T17:43:35.267Z,56.29
2017-07-26T17:46:04.321Z,56.51
2017-07-26T17:48:33.376Z,56.88
2017-07-26T17:51:02.468Z,57.05
2017-07-26T17:53:31.488Z,57.69
2017-07-26T17:56:00.576Z,58.51
2017-07-26T17:58:29.645Z,58.57
2017-07-26T18:00:58.711Z,58.51
2017-07-26T18:03:28.517Z,59.61
2017-07-26T18:05:58.318Z,60.56
2017-07-26T18:08:28.179Z,61.04
2017-07-26T18:10:57.223Z,61.35
2017-07-26T18:13:27.032Z,61.75
2017-07-26T18:15:56.086Z,62.27
2017-07-26T18:18:25.129Z,61.68
2017-07-26T18:20:54.216Z,61.17
2017-07-26T18:23:23.256Z,62.05
2017-07-26T18:25:52.318Z,62.36
2017-07-26T18:28:22.145Z,62.40
2017-07-26T18:30:51.177Z,61.77
2017-07-26T18:33:20.761Z,62.02
2017-07-26T18:35:49.819Z,62.60
2017-07-26T18:38:18.875Z,62.79
2017-07-26T18:40:47.937Z,62.20
2017-07-26T18:43:16.964Z,61.85
2017-07-26T18:45:46.016Z,61.76
2017-07-26T18:48:15.093Z,61.68
2017-07-26T18:50:44.121Z,62.87
2017-07-26T18:53:13.167Z,62.91
2017-07-26T18:55:42.224Z,63.45
2017-07-26T18:58:11.264Z,63.23
2017-07-26T19:00:40.393Z,63.39
2017-07-26T19:03:09.569Z,62.85
2017-07-26T19:05:39.373Z,62.98
2017-07-26T19:08:08.462Z,63.75
2017-07-26T19:10:37.513Z,63.58
2017-07-26T19:13:06.563Z,63.78
2017-07-26T19:15:36.373Z,63.62
2017-07-26T19:18:06.224Z,64.18
2017-07-26T19:20:35.271Z,63.81
2017-07-26T19:23:04.359Z,63.92
2017-07-26T19:25:33.431Z,63.72
2017-07-26T19:28:02.475Z,64.51
2017-07-26T19:30:32.294Z,64.51
2017-07-26T19:33:02.164Z,64.51
2017-07-26T19:35:31.272Z,64.56
2017-07-26T19:38:00.337Z,64.88
2017-07-26T19:40:29.377Z,63.67
2017-07-26T19:42:59.197Z,63.44
2017-07-26T19:45:29.044Z,63.25
2017-07-26T19:47:58.112Z,64.03
2017-07-26T19:50:27.945Z,64.15
2017-07-26T19:52:57.005Z,64.45
2017-07-26T19:55:26.107Z,64.80
2017-07-26T19:57:55.186Z,64.95
2017-07-26T20:00:24.243Z,64.92
2017-07-26T20:02:53.289Z,65.32
2017-07-26T20:05:23.119Z,65.37
2017-07-26T20:07:53.116Z,65.90
2017-07-26T20:10:23.085Z,65.80
2017-07-26T20:12:52.140Z,65.15
2017-07-26T20:15:22.030Z,65.07
2017-07-26T20:17:51.083Z,64.86
2017-07-26T20:20:20.155Z,64.70
2017-07-26T20:22:49.206Z,65.10
2017-07-26T20:25:18.348Z,65.10
2017-07-26T20:27:48.163Z,65.41
2017-07-26T20:30:17.221Z,66.10
2017-07-26T20:32:46.287Z,65.38
2017-07-26T20:35:15.365Z,65.33
2017-07-26T20:37:44.469Z,65.61
2017-07-26T20:40:13.526Z,66.00
2017-07-26T20:42:43.344Z,66.31
2017-07-26T20:45:12.393Z,66.02
2017-07-26T20:47:41.445Z,65.83
2017-07-26T20:50:10.520Z,66.52
2017-07-26T20:52:40.348Z,66.93
2017-07-26T20:55:09.542Z,66.20
2017-07-26T20:57:38.584Z,66.53
2017-07-26T21:00:07.733Z,67.14
2017-07-26T21:02:38.219Z,67.14
2017-07-26T21:05:07.309Z,67.29
2017-07-26T21:07:36.373Z,67.74
2017-07-26T21:10:05.445Z,68.18
2017-07-26T21:12:34.488Z,68.26
2017-07-26T21:15:03.565Z,68.33
2017-07-26T21:17:32.720Z,68.41
2017-07-26T21:20:01.776Z,68.28
2017-07-26T21:22:30.828Z,68.16
2017-07-26T21:24:59.893Z,68.62
2017-07-26T21:27:28.956Z,68.28
2017-07-26T21:29:58.008Z,68.54
2017-07-26T21:32:27.131Z,68.73
2017-07-26T21:34:56.200Z,68.53
2017-07-26T21:37:25.252Z,67.87
2017-07-26T21:39:55.090Z,68.10
2017-07-26T21:42:24.920Z,67.90
2017-07-26T21:44:53.990Z,67.54
2017-07-26T21:47:23.086Z,68.24
2017-07-26T21:49:52.130Z,67.85
2017-07-26T21:52:21.186Z,67.90
2017-07-26T21:54:51.016Z,68.03
2017-07-26T21:57:20.071Z,67.22
2017-07-26T21:59:49.144Z,67.23
2017-07-26T22:02:18.269Z,67.50
2017-07-26T22:07:43.123Z,67.24
2017-07-26T22:10:12.186Z,67.00
2017-07-26T22:12:42.008Z,66.70
2017-07-26T22:15:11.840Z,66.54
2017-07-26T22:17:40.897Z,67.01
2017-07-26T22:20:09.979Z,66.57
2017-07-26T22:22:39.012Z,66.41
2017-07-26T22:25:08.118Z,65.86
2017-07-26T22:27:37.915Z,66.27
2017-07-26T22:30:07.759Z,65.91
2017-07-26T22:32:36.813Z,66.07
2017-07-26T22:35:06.614Z,66.02
2017-07-26T22:37:35.654Z,66.06
2017-07-26T22:40:04.734Z,65.88
2017-07-26T22:42:33.776Z,65.99
2017-07-26T22:45:02.867Z,65.93
2017-07-26T22:47:31.923Z,66.41
2017-07-26T22:50:01.737Z,66.46
2017-07-26T22:52:30.820Z,66.62
2017-07-26T22:55:00.633Z,66.51
2017-07-26T22:57:29.718Z,66.28
2017-07-26T22:59:58.745Z,65.94
2017-07-26T23:02:27.830Z,66.37
2017-07-26T23:04:57.632Z,66.27
2017-07-26T23:07:26.671Z,65.44
2017-07-26T23:09:55.719Z,66.08
2017-07-26T23:12:24.771Z,65.82
2017-07-26T23:14:53.852Z,66.03
2017-07-26T23:17:22.912Z,65.98
2017-07-26T23:19:51.974Z,66.64
2017-07-26T23:22:21.036Z,66.36
2017-07-26T23:24:50.067Z,66.67
2017-07-26T23:27:19.892Z,66.75
2017-07-26T23:29:49.740Z,66.76
2017-07-26T23:32:18.790Z,66.82
2017-07-26T23:34:48.620Z,66.98
2017-07-26T23:37:17.654Z,67.80
2017-07-26T23:39:47.175Z,67.32
2017-07-26T23:42:16.257Z,67.43
2017-07-26T23:44:45.343Z,67.76
2017-07-26T23:47:14.393Z,67.81
2017-07-26T23:49:43.656Z,68.41
2017-07-26T23:52:13.282Z,68.69
2017-07-26T23:54:42.330Z,68.83
2017-07-26T23:57:11.385Z,68.77
2017-07-26T23:59:40.452Z,68.58
